createdAt,value
2023-12-30T00:01:55.857Z,67.13
2023-12-30T00:04:58.354Z,64.15
2023-12-30T00:08:00.539Z,67.80
2023-12-30T00:11:03.795Z,65.67
2023-12-30T00:14:06.735Z,66.90
2023-12-30T00:17:09.142Z,71.63
2023-12-30T00:20:14.078Z,70.80
2023-12-30T00:23:17.113Z,74.07
2023-12-30T00:26:20.817Z,74.10
2023-12-30T00:29:22.864Z,74.38
2023-12-30T00:32:25.093Z,76.80
2023-12-30T00:35:27.431Z,102.10
2023-12-30T00:38:30.645Z,126.70
2023-12-30T00:41:32.927Z,78.80
2023-12-30T00:44:35.672Z,73.68
2023-12-30T00:47:38.486Z,71.63
2023-12-30T00:50:40.803Z,69.32
2023-12-30T00:53:46.302Z,72.53
2023-12-30T00:56:56.485Z,77.80
2023-12-30T01:00:02.836Z,82.68
2023-12-30T01:03:07.021Z,82.80
2023-12-30T01:06:12.142Z,87.88
2023-12-30T01:09:14.599Z,87.43
2023-12-30T01:12:17.829Z,109.10
2023-12-30T01:15:20.033Z,117.55
2023-12-30T01:18:23.665Z,120.43
2023-12-30T01:21:27.280Z,124.15
2023-12-30T01:24:30.994Z,85.03
2023-12-30T01:27:33.456Z,73.90
2023-12-30T01:30:38.434Z,77.68
2023-12-30T01:33:41.988Z,71.65
2023-12-30T01:36:44.266Z,106.90
2023-12-30T01:39:46.429Z,92.40
2023-12-30T01:42:49.693Z,102.93
2023-12-30T01:45:53.757Z,95.90
2023-12-30T01:48:56.251Z,88.50
2023-12-30T01:52:00.027Z,77.05
2023-12-30T01:55:06.361Z,82.20
2023-12-30T01:58:08.869Z,120.83
2023-12-30T02:01:11.630Z,109.80
2023-12-30T02:04:13.952Z,94.70
2023-12-30T02:07:16.335Z,80.10
2023-12-30T02:10:19.536Z,70.70
2023-12-30T02:13:22.389Z,68.30
2023-12-30T02:16:24.720Z,79.53
2023-12-30T02:19:26.880Z,88.60
2023-12-30T02:22:29.053Z,80.38
2023-12-30T02:25:31.526Z,82.37
2023-12-30T02:28:33.791Z,92.63
2023-12-30T02:31:50.071Z,82.00
2023-12-30T02:34:52.459Z,88.28
2023-12-30T02:37:54.633Z,87.07
2023-12-30T02:40:56.513Z,76.80
2023-12-30T02:44:01.785Z,81.17
2023-12-30T02:47:03.755Z,104.95
2023-12-30T02:50:06.337Z,99.40
2023-12-30T02:53:08.523Z,90.40
2023-12-30T02:56:25.427Z,87.47
2023-12-30T02:59:27.448Z,76.77
2023-12-30T03:02:29.521Z,67.53
2023-12-30T03:05:31.664Z,72.78
2023-12-30T03:08:33.813Z,97.78
2023-12-30T03:11:35.867Z,85.50
2023-12-30T03:14:37.943Z,73.83
2023-12-30T03:17:43.206Z,69.15
2023-12-30T03:20:46.129Z,67.60
2023-12-30T03:23:48.370Z,68.93
2023-12-30T03:26:50.632Z,71.90
2023-12-30T03:29:53.713Z,68.90
2023-12-30T03:32:57.178Z,72.15
2023-12-30T03:36:02.531Z,64.87
2023-12-30T03:39:05.486Z,61.83
2023-12-30T03:42:07.648Z,65.07
2023-12-30T03:45:10.969Z,69.60
2023-12-30T03:48:13.631Z,73.97
2023-12-30T03:51:17.489Z,71.43
2023-12-30T03:54:22.234Z,72.88
2023-12-30T03:57:24.783Z,73.28
2023-12-30T04:00:27.054Z,73.32
2023-12-30T04:03:29.165Z,76.13
2023-12-30T04:06:31.437Z,75.30
2023-12-30T04:09:34.813Z,77.70
2023-12-30T04:12:37.278Z,82.97
2023-12-30T04:15:39.620Z,71.93
2023-12-30T04:18:42.965Z,73.82
2023-12-30T04:21:45.060Z,84.00
2023-12-30T04:24:48.368Z,76.88
2023-12-30T04:27:50.947Z,77.95
2023-12-30T04:30:54.049Z,94.25
2023-12-30T04:33:56.308Z,81.95
2023-12-30T04:36:58.223Z,104.87
2023-12-30T04:40:00.428Z,89.78
2023-12-30T04:43:02.804Z,83.68
2023-12-30T04:46:05.499Z,82.65
2023-12-30T04:49:07.689Z,72.88
2023-12-30T04:52:11.563Z,84.53
2023-12-30T04:55:13.693Z,74.18
2023-12-30T04:58:16.386Z,82.03
2023-12-30T05:01:18.596Z,68.75
2023-12-30T05:04:21.408Z,68.28
2023-12-30T05:07:23.567Z,70.07
2023-12-30T05:10:25.839Z,65.15
2023-12-30T05:13:27.956Z,73.15
2023-12-30T05:16:32.617Z,71.68
2023-12-30T05:19:34.711Z,79.60
2023-12-30T05:22:36.884Z,67.20
2023-12-30T05:25:39.535Z,72.90
2023-12-30T05:28:41.993Z,67.70
2023-12-30T05:31:44.137Z,65.63
2023-12-30T05:34:46.261Z,59.38
2023-12-30T05:37:48.505Z,60.47
2023-12-30T05:40:50.386Z,61.25
2023-12-30T05:43:52.547Z,59.67
2023-12-30T05:46:54.588Z,79.75
2023-12-30T05:49:56.977Z,78.55
2023-12-30T05:53:00.619Z,67.37
2023-12-30T05:56:03.483Z,69.50
2023-12-30T05:59:07.592Z,67.22
2023-12-30T06:02:11.350Z,66.90
2023-12-30T06:05:17.260Z,63.53
2023-12-30T06:08:21.022Z,75.83
2023-12-30T06:11:25.834Z,68.65
2023-12-30T06:14:28.372Z,65.88
2023-12-30T06:17:31.592Z,67.20
2023-12-30T06:20:33.947Z,65.55
2023-12-30T06:23:36.200Z,91.40
2023-12-30T06:26:39.294Z,81.30
2023-12-30T06:29:42.650Z,83.20
2023-12-30T06:32:44.809Z,72.80
2023-12-30T06:35:47.168Z,78.05
2023-12-30T06:38:49.489Z,66.77
2023-12-30T06:41:54.252Z,68.78
2023-12-30T06:44:57.026Z,64.93
2023-12-30T06:47:59.304Z,62.17
2023-12-30T06:51:02.999Z,61.17
2023-12-30T06:54:07.610Z,60.47
2023-12-30T06:57:09.918Z,63.38
2023-12-30T07:00:12.417Z,60.75
2023-12-30T07:03:15.015Z,58.60
2023-12-30T07:06:18.926Z,63.10
2023-12-30T07:09:23.835Z,60.73
2023-12-30T07:12:25.742Z,65.25
2023-12-30T07:15:27.926Z,62.78
2023-12-30T07:18:30.098Z,63.70
2023-12-30T07:21:32.354Z,72.22
2023-12-30T07:24:34.491Z,58.77
2023-12-30T07:27:36.683Z,56.25
2023-12-30T07:30:38.787Z,52.03
2023-12-30T07:33:42.803Z,53.72
2023-12-30T07:36:45.194Z,58.90
2023-12-30T07:39:47.685Z,59.63
2023-12-30T07:42:49.867Z,49.50
2023-12-30T07:45:51.915Z,61.75
2023-12-30T07:48:56.613Z,57.58
2023-12-30T07:52:02.010Z,57.45
2023-12-30T07:55:04.887Z,57.60
2023-12-30T07:58:08.134Z,58.60
2023-12-30T08:01:11.663Z,61.35
2023-12-30T08:04:14.601Z,53.80
2023-12-30T08:07:16.812Z,57.03
2023-12-30T08:10:20.170Z,63.00
2023-12-30T08:13:22.350Z,58.78
2023-12-30T08:16:24.731Z,57.92
2023-12-30T08:19:26.814Z,57.97
2023-12-30T08:22:30.057Z,64.18
2023-12-30T08:25:32.172Z,58.73
2023-12-30T08:28:34.412Z,52.45
2023-12-30T08:31:37.106Z,60.45
2023-12-30T08:34:39.193Z,63.53
2023-12-30T08:37:41.314Z,54.83
2023-12-30T08:40:47.076Z,58.83
2023-12-30T08:43:53.336Z,59.00
2023-12-30T08:46:55.455Z,59.47
2023-12-30T08:49:58.007Z,58.05
2023-12-30T08:53:00.467Z,67.18
2023-12-30T08:56:03.371Z,88.67
2023-12-30T08:59:05.355Z,96.80
2023-12-30T09:02:07.483Z,72.00
2023-12-30T09:05:09.782Z,59.13
2023-12-30T09:08:13.479Z,60.17
2023-12-30T09:11:23.046Z,56.17
2023-12-30T09:14:25.355Z,57.70
2023-12-30T09:17:27.505Z,59.38
2023-12-30T09:20:31.088Z,59.08
2023-12-30T09:23:34.223Z,60.13
2023-12-30T09:26:36.772Z,59.60
2023-12-30T09:29:40.129Z,68.50
2023-12-30T09:32:42.406Z,65.13
2023-12-30T09:35:45.257Z,56.85
2023-12-30T09:38:47.829Z,60.85
2023-12-30T09:41:50.306Z,60.47
2023-12-30T09:44:53.168Z,55.55
2023-12-30T09:48:00.859Z,59.17
2023-12-30T09:51:03.229Z,65.63
2023-12-30T09:54:07.701Z,69.03
2023-12-30T09:57:09.930Z,56.33
2023-12-30T10:00:16.795Z,58.17
2023-12-30T10:03:20.592Z,61.50
2023-12-30T10:06:26.758Z,60.97
2023-12-30T10:09:31.336Z,70.05
2023-12-30T10:12:33.831Z,61.90
2023-12-30T10:15:36.198Z,62.67
2023-12-30T10:18:41.223Z,58.90
2023-12-30T10:21:45.094Z,64.07
2023-12-30T10:24:50.202Z,63.08
2023-12-30T10:27:52.358Z,63.73
2023-12-30T10:31:06.115Z,59.25
2023-12-30T10:34:09.310Z,61.03
2023-12-30T10:37:13.363Z,56.38
2023-12-30T10:40:16.884Z,56.63
2023-12-30T10:43:22.966Z,57.97
2023-12-30T10:46:28.348Z,56.03
2023-12-30T10:49:31.110Z,60.78
2023-12-30T10:52:37.338Z,57.65
2023-12-30T10:55:50.793Z,57.95
2023-12-30T10:58:59.318Z,54.20
2023-12-30T11:02:06.923Z,57.03
2023-12-30T11:05:13.149Z,55.20
2023-12-30T11:08:18.269Z,58.47
2023-12-30T11:11:25.438Z,62.40
2023-12-30T11:14:28.917Z,60.27
2023-12-30T11:17:35.238Z,62.75
2023-12-30T11:20:46.474Z,66.75
2023-12-30T11:23:49.507Z,61.28
2023-12-30T11:26:54.556Z,62.35
2023-12-30T11:29:58.227Z,54.27
2023-12-30T11:33:01.064Z,54.05
2023-12-30T11:36:07.744Z,52.38
2023-12-30T11:39:16.664Z,46.95
2023-12-30T11:42:18.606Z,48.10
2023-12-30T11:45:24.870Z,43.63
2023-12-30T11:48:29.901Z,46.72
2023-12-30T11:51:33.197Z,46.58
2023-12-30T11:54:37.007Z,43.30
2023-12-30T11:57:39.183Z,39.85
2023-12-30T12:00:41.504Z,46.93
2023-12-30T12:03:46.523Z,49.88
2023-12-30T12:06:49.103Z,49.42
2023-12-30T12:09:51.309Z,58.40
2023-12-30T12:12:54.505Z,50.13
2023-12-30T12:15:57.787Z,48.13
2023-12-30T12:19:03.912Z,50.88
2023-12-30T12:22:07.615Z,53.75
2023-12-30T12:25:13.397Z,54.42
2023-12-30T12:28:19.569Z,54.53
2023-12-30T12:31:22.457Z,52.77
2023-12-30T12:34:29.883Z,62.03
2023-12-30T12:37:34.871Z,53.95
2023-12-30T12:40:40.584Z,50.13
2023-12-30T12:43:42.904Z,53.38
2023-12-30T12:46:47.876Z,50.80
2023-12-30T12:50:14.641Z,51.42
2023-12-30T12:53:21.094Z,53.47
2023-12-30T12:56:32.901Z,50.22
2023-12-30T12:59:59.001Z,53.08
2023-12-30T13:03:06.689Z,52.70
2023-12-30T13:06:15.773Z,36.70
2023-12-30T13:13:10.967Z,36.65
2023-12-30T13:16:15.295Z,39.58
2023-12-30T13:19:23.071Z,32.90
2023-12-30T13:22:39.719Z,34.65
2023-12-30T13:25:55.683Z,36.65
2023-12-30T13:29:06.104Z,41.10
2023-12-30T13:32:19.392Z,34.13
2023-12-30T13:35:28.168Z,34.17
2023-12-30T13:38:36.307Z,29.75
2023-12-30T13:41:46.435Z,32.70
2023-12-30T13:44:55.275Z,30.80
2023-12-30T13:48:07.363Z,31.58
2023-12-30T13:51:21.514Z,29.97
2023-12-30T13:54:24.779Z,28.63
2023-12-30T13:57:38.725Z,33.92
2023-12-30T14:00:44.426Z,29.58
2023-12-30T14:03:49.537Z,33.63
2023-12-30T14:06:51.948Z,34.87
2023-12-30T14:10:08.028Z,31.33
2023-12-30T14:13:24.374Z,32.60
2023-12-30T14:16:30.697Z,33.22
2023-12-30T14:19:32.915Z,38.70
2023-12-30T14:22:35.724Z,33.60
2023-12-30T14:25:40.926Z,48.33
2023-12-30T14:28:43.486Z,37.55
2023-12-30T14:31:46.602Z,32.97
2023-12-30T14:34:51.446Z,35.25
2023-12-30T14:37:53.817Z,40.87
2023-12-30T14:41:07.932Z,44.55
2023-12-30T14:44:19.442Z,45.40
2023-12-30T14:47:22.613Z,64.22
2023-12-30T14:50:25.361Z,50.13
2023-12-30T14:53:27.776Z,53.43
2023-12-30T14:56:30.166Z,50.88
2023-12-30T14:59:32.830Z,44.88
2023-12-30T15:02:40.478Z,48.10
2023-12-30T15:05:44.069Z,66.38
2023-12-30T15:08:49.004Z,72.13
2023-12-30T15:12:04.789Z,68.70
2023-12-30T15:15:11.025Z,67.93
2023-12-30T15:18:13.739Z,62.53
2023-12-30T15:21:16.782Z,50.97
2023-12-30T15:24:24.850Z,52.20
2023-12-30T15:27:28.447Z,64.85
2023-12-30T15:30:34.688Z,57.67
2023-12-30T15:33:41.233Z,55.72
2023-12-30T15:36:47.500Z,54.17
2023-12-30T15:39:49.929Z,52.50
2023-12-30T15:42:55.855Z,52.70
2023-12-30T15:45:59.497Z,55.55
2023-12-30T15:49:01.752Z,81.05
2023-12-30T15:52:04.109Z,79.47
2023-12-30T15:55:06.911Z,66.70
2023-12-30T15:58:09.212Z,60.88
2023-12-30T16:01:11.873Z,61.55
2023-12-30T16:04:14.338Z,64.57
2023-12-30T16:07:16.420Z,59.85
2023-12-30T16:10:18.735Z,61.90
2023-12-30T16:13:21.110Z,68.45
2023-12-30T16:16:23.167Z,64.40
2023-12-30T16:19:26.608Z,73.65
2023-12-30T16:22:28.645Z,65.65
2023-12-30T16:25:33.398Z,60.20
2023-12-30T16:28:36.898Z,65.97
2023-12-30T16:31:39.189Z,65.82
2023-12-30T16:34:41.940Z,62.25
2023-12-30T16:37:47.073Z,68.68
2023-12-30T16:40:49.748Z,72.33
2023-12-30T16:43:52.248Z,67.97
2023-12-30T16:46:56.768Z,65.22
2023-12-30T16:49:59.006Z,66.28
2023-12-30T16:53:06.120Z,66.00
2023-12-30T16:56:16.923Z,68.00
2023-12-30T16:59:20.794Z,75.35
2023-12-30T17:02:23.248Z,68.70
2023-12-30T17:05:26.742Z,69.50
2023-12-30T17:08:33.129Z,64.68
2023-12-30T17:11:37.340Z,67.83
2023-12-30T17:14:45.823Z,71.57
2023-12-30T17:17:51.729Z,60.30
2023-12-30T17:20:54.434Z,66.57
2023-12-30T17:23:58.110Z,64.15
2023-12-30T17:27:04.298Z,67.00
2023-12-30T17:30:10.384Z,62.58
2023-12-30T17:33:17.797Z,65.28
2023-12-30T17:36:20.516Z,70.35
2023-12-30T17:39:26.168Z,62.25
2023-12-30T17:42:32.091Z,70.87
2023-12-30T17:45:40.051Z,76.97
2023-12-30T17:48:43.404Z,77.43
2023-12-30T17:51:48.123Z,78.07
2023-12-30T17:54:53.204Z,77.03
2023-12-30T17:58:10.323Z,83.60
2023-12-30T18:01:16.833Z,93.63
2023-12-30T18:04:31.539Z,86.47
2023-12-30T18:07:56.575Z,76.38
2023-12-30T18:11:13.883Z,73.32
2023-12-30T18:14:23.461Z,68.90
2023-12-30T18:17:31.135Z,76.57
2023-12-30T18:20:39.674Z,78.05
2023-12-30T18:27:15.702Z,89.85
2023-12-30T18:30:38.394Z,82.07
2023-12-30T18:33:51.078Z,95.03
2023-12-30T18:36:59.329Z,100.88
2023-12-30T18:40:31.434Z,114.20
2023-12-30T18:43:34.980Z,113.70
2023-12-30T18:46:42.491Z,120.90
2023-12-30T18:49:58.767Z,106.60
2023-12-30T18:53:28.747Z,99.57
2023-12-30T18:56:34.294Z,94.80
2023-12-30T18:59:49.653Z,103.28
2023-12-30T19:03:02.869Z,105.57
2023-12-30T19:06:23.645Z,99.13
2023-12-30T19:09:51.131Z,103.72
2023-12-30T19:13:02.580Z,112.50
2023-12-30T19:16:11.434Z,112.13
2023-12-30T19:19:14.024Z,97.80
2023-12-30T19:22:16.511Z,106.15
2023-12-30T19:25:19.452Z,99.43
2023-12-30T19:28:22.748Z,102.47
2023-12-30T19:31:25.252Z,115.68
2023-12-30T19:34:27.865Z,100.07
2023-12-30T19:37:32.182Z,126.05
2023-12-30T19:40:34.795Z,129.57
2023-12-30T19:43:37.608Z,123.72
2023-12-30T19:46:40.455Z,111.80
2023-12-30T19:49:44.520Z,105.20
2023-12-30T19:52:48.290Z,103.03
2023-12-30T19:55:50.993Z,116.50
2023-12-30T19:58:53.732Z,112.78
2023-12-30T20:01:57.008Z,126.95
2023-12-30T20:05:02.579Z,131.40
2023-12-30T20:08:06.705Z,125.68
2023-12-30T20:11:10.503Z,111.75
2023-12-30T20:14:16.536Z,95.13
2023-12-30T20:17:18.723Z,91.57
2023-12-30T20:20:21.045Z,109.30
2023-12-30T20:23:27.201Z,124.68
2023-12-30T20:26:29.908Z,120.78
2023-12-30T20:29:33.152Z,124.18
2023-12-30T20:32:39.576Z,101.55
2023-12-30T20:35:43.925Z,100.53
2023-12-30T20:38:46.295Z,106.85
2023-12-30T20:41:51.677Z,119.50
2023-12-30T20:44:54.241Z,128.82
2023-12-30T20:47:56.926Z,136.80
2023-12-30T20:50:59.607Z,148.37
2023-12-30T20:54:02.380Z,117.93
2023-12-30T20:57:06.432Z,108.88
2023-12-30T21:00:12.071Z,115.63
2023-12-30T21:03:14.722Z,95.95
2023-12-30T21:06:16.999Z,89.80
2023-12-30T21:09:20.011Z,85.18
2023-12-30T21:12:25.068Z,85.28
2023-12-30T21:15:31.960Z,84.45
2023-12-30T21:18:35.147Z,76.20
2023-12-30T21:21:40.920Z,70.13
2023-12-30T21:24:46.699Z,68.20
2023-12-30T21:27:54.711Z,68.30
2023-12-30T21:30:59.091Z,74.88
2023-12-30T21:34:09.325Z,63.58
2023-12-30T21:37:14.009Z,63.37
2023-12-30T21:40:20.270Z,59.00
2023-12-30T21:43:24.671Z,69.68
2023-12-30T21:46:27.803Z,59.72
2023-12-30T21:49:30.995Z,59.08
2023-12-30T21:52:37.618Z,74.43
2023-12-30T21:55:43.589Z,80.68
2023-12-30T21:58:46.461Z,70.53
2023-12-30T22:01:50.359Z,65.13
2023-12-30T22:04:54.864Z,65.65
2023-12-30T22:07:58.203Z,61.27
2023-12-30T22:11:00.825Z,59.72
2023-12-30T22:14:04.356Z,63.72
2023-12-30T22:17:10.794Z,64.15
2023-12-30T22:20:14.384Z,60.50
2023-12-30T22:23:20.369Z,60.97
2023-12-30T22:26:24.742Z,63.40
2023-12-30T22:29:27.624Z,59.97
2023-12-30T22:32:31.205Z,63.60
2023-12-30T22:35:34.173Z,64.13
2023-12-30T22:38:40.065Z,64.40
2023-12-30T22:41:43.409Z,63.25
2023-12-30T22:44:51.329Z,69.72
2023-12-30T22:47:54.097Z,67.60
2023-12-30T22:50:59.177Z,64.72
2023-12-30T22:54:03.298Z,64.07
2023-12-30T22:57:09.771Z,60.97
2023-12-30T23:00:15.152Z,64.32
2023-12-30T23:03:22.062Z,56.65
2023-12-30T23:06:26.927Z,62.88
2023-12-30T23:09:29.736Z,66.17
2023-12-30T23:12:32.584Z,65.93
2023-12-30T23:15:35.027Z,70.85
2023-12-30T23:18:40.064Z,60.75
2023-12-30T23:21:44.039Z,64.97
2023-12-30T23:24:46.563Z,60.90
2023-12-30T23:27:49.164Z,64.25
2023-12-30T23:30:51.646Z,64.10
2023-12-30T23:33:54.133Z,69.53
2023-12-30T23:36:56.850Z,63.00
2023-12-30T23:40:02.588Z,63.53
2023-12-30T23:43:06.294Z,66.68
2023-12-30T23:46:09.766Z,65.60
2023-12-30T23:49:12.646Z,62.70
2023-12-30T23:52:15.520Z,68.40
2023-12-30T23:55:18.281Z,75.17
2023-12-30T23:58:20.648Z,68.40
